createdAt,value
2022-11-16T00:02:23.354Z,99588.31
2022-11-16T00:04:51.365Z,99579.75
2022-11-16T00:07:19.385Z,99566.16
2022-11-16T00:09:48.086Z,99563.56
2022-11-16T00:12:17.248Z,99564.44
2022-11-16T00:14:45.098Z,99561.88
2022-11-16T00:17:12.998Z,99556.75
2022-11-16T00:19:40.826Z,99557.59
2022-11-16T00:22:08.860Z,99549.94
2022-11-16T00:24:36.707Z,99550.00
2022-11-16T00:27:04.723Z,99537.19
2022-11-16T00:29:34.004Z,99541.50
2022-11-16T00:32:02.724Z,99532.09
2022-11-16T00:34:30.530Z,99540.59
2022-11-16T00:36:58.440Z,99548.25
2022-11-16T00:39:26.336Z,99553.41
2022-11-16T00:41:54.308Z,99547.34
2022-11-16T00:44:22.414Z,99552.44
2022-11-16T00:46:51.933Z,99552.44
2022-11-16T00:49:19.823Z,99549.88
2022-11-16T00:51:48.040Z,99558.47
2022-11-16T00:54:16.092Z,99557.56
2022-11-16T00:56:44.321Z,99560.94
2022-11-16T00:59:13.397Z,99567.81
2022-11-16T01:01:43.440Z,99566.91
2022-11-16T01:04:12.706Z,99567.75
2022-11-16T01:06:40.641Z,99565.19
2022-11-16T01:09:08.564Z,99556.72
2022-11-16T01:11:53.897Z,99546.53
2022-11-16T01:14:21.766Z,99526.03
2022-11-16T01:16:50.455Z,99515.00
2022-11-16T01:19:19.990Z,99498.84
2022-11-16T01:21:47.853Z,99477.59
2022-11-16T01:24:15.989Z,99475.09
2022-11-16T01:26:43.885Z,99456.34
2022-11-16T01:29:11.910Z,99433.44
2022-11-16T01:31:44.314Z,99408.75
2022-11-16T01:34:12.179Z,99383.25
2022-11-16T01:39:36.617Z,99355.28
2022-11-16T01:42:17.931Z,99321.28
2022-11-16T01:45:02.713Z,99300.88
2022-11-16T01:47:31.004Z,99278.81
2022-11-16T01:50:05.677Z,99275.41
2022-11-16T01:52:40.493Z,99272.97
2022-11-16T01:55:09.363Z,99262.69
2022-11-16T01:57:48.633Z,99250.81
2022-11-16T02:00:19.778Z,99241.44
2022-11-16T02:03:05.448Z,99233.88
2022-11-16T02:06:08.769Z,99229.63
2022-11-16T02:09:13.073Z,99221.09
2022-11-16T02:12:15.410Z,99209.28
2022-11-16T02:14:58.835Z,99205.06
2022-11-16T02:17:42.952Z,99203.38
2022-11-16T02:20:38.752Z,99186.31
2022-11-16T02:23:29.041Z,99181.25
2022-11-16T02:26:08.763Z,99173.69
2022-11-16T02:28:49.453Z,99165.97
2022-11-16T02:31:25.503Z,99169.38
2022-11-16T02:33:56.318Z,99162.56
2022-11-16T02:36:26.561Z,99165.16
2022-11-16T02:38:59.880Z,99149.88
2022-11-16T02:41:32.470Z,99132.03
2022-11-16T02:44:05.839Z,99134.63
2022-11-16T02:46:39.556Z,99134.63
2022-11-16T02:49:12.854Z,99129.50
2022-11-16T02:51:43.154Z,99129.50
2022-11-16T02:54:13.249Z,99126.09
2022-11-16T02:56:53.707Z,99116.78
2022-11-16T02:59:30.248Z,99119.34
2022-11-16T03:02:06.421Z,99110.88
2022-11-16T03:04:40.092Z,99104.91
2022-11-16T03:07:14.362Z,99103.28
2022-11-16T03:09:43.441Z,99092.22
2022-11-16T03:12:15.782Z,99079.50
2022-11-16T03:14:48.722Z,99071.91
2022-11-16T03:17:23.828Z,99065.19
2022-11-16T03:19:58.937Z,99056.63
2022-11-16T03:22:32.295Z,99042.16
2022-11-16T03:25:00.641Z,99029.53
2022-11-16T03:27:38.293Z,99022.72
2022-11-16T03:30:10.857Z,99016.78
2022-11-16T03:32:50.995Z,99009.16
2022-11-16T03:35:24.750Z,99004.91
2022-11-16T03:37:56.288Z,99011.78
2022-11-16T03:40:28.776Z,98996.44
2022-11-16T03:42:59.714Z,99000.75
2022-11-16T03:45:28.060Z,98993.09
2022-11-16T03:47:57.349Z,98993.16
2022-11-16T03:50:29.348Z,98984.63
2022-11-16T03:52:57.309Z,98989.75
2022-11-16T03:55:25.272Z,98988.03
2022-11-16T03:57:54.047Z,98976.16
2022-11-16T04:00:22.696Z,98977.88
2022-11-16T04:02:53.875Z,98972.81
2022-11-16T04:05:41.387Z,98970.25
2022-11-16T04:08:33.014Z,98968.56
2022-11-16T04:11:18.629Z,98963.50
2022-11-16T04:14:17.432Z,98966.88
2022-11-16T04:17:02.988Z,98959.19
2022-11-16T04:19:48.566Z,98970.28
2022-11-16T04:22:39.661Z,98966.06
2022-11-16T04:25:13.249Z,98965.22
2022-11-16T04:27:59.394Z,98972.03
2022-11-16T04:30:49.555Z,98972.03
2022-11-16T04:33:34.922Z,98969.53
2022-11-16T04:36:34.945Z,98967.78
2022-11-16T04:39:05.600Z,98966.97
2022-11-16T04:41:51.805Z,98972.09
2022-11-16T04:44:20.115Z,98962.72
2022-11-16T04:47:05.676Z,98952.53
2022-11-16T04:49:35.162Z,98956.00
2022-11-16T04:52:03.664Z,98948.34
2022-11-16T04:54:34.151Z,98948.34
2022-11-16T04:57:03.308Z,98952.66
2022-11-16T04:59:31.227Z,98950.91
2022-11-16T05:02:11.556Z,98950.91
2022-11-16T05:04:46.643Z,98944.19
2022-11-16T05:07:15.699Z,98948.50
2022-11-16T05:09:48.588Z,98946.75
2022-11-16T05:12:20.026Z,98937.38
2022-11-16T05:14:51.266Z,98946.75
2022-11-16T05:17:20.664Z,98939.94
2022-11-16T05:20:06.581Z,98937.38
2022-11-16T05:22:40.585Z,98940.84
2022-11-16T05:25:11.134Z,98943.44
2022-11-16T05:27:39.151Z,98948.50
2022-11-16T05:30:09.069Z,98943.34
2022-11-16T05:32:36.978Z,98955.28
2022-11-16T05:35:06.174Z,98946.75
2022-11-16T05:37:34.062Z,98951.88
2022-11-16T05:40:02.722Z,98947.59
2022-11-16T05:42:47.038Z,98953.56
2022-11-16T05:45:19.870Z,98959.53
2022-11-16T05:47:49.621Z,98960.34
2022-11-16T05:50:18.375Z,98965.50
2022-11-16T05:53:00.767Z,98963.75
2022-11-16T05:55:28.987Z,98969.81
2022-11-16T05:57:58.612Z,98968.91
2022-11-16T06:00:26.913Z,98968.91
2022-11-16T06:02:56.154Z,98965.50
2022-11-16T06:05:29.242Z,98965.50
2022-11-16T06:07:58.344Z,98968.03
2022-11-16T06:10:26.550Z,98973.16
2022-11-16T06:12:55.105Z,98974.88
2022-11-16T06:15:25.529Z,98973.16
2022-11-16T06:17:53.604Z,98975.66
2022-11-16T06:20:21.961Z,98980.81
2022-11-16T06:22:50.324Z,98982.53
2022-11-16T06:25:18.886Z,98981.63
2022-11-16T06:27:47.538Z,98983.38
2022-11-16T06:30:18.906Z,98983.38
2022-11-16T06:32:48.194Z,98987.69
2022-11-16T06:35:16.680Z,98985.03
2022-11-16T06:37:45.032Z,98985.94
2022-11-16T06:40:13.824Z,98979.97
2022-11-16T06:42:44.749Z,98975.75
2022-11-16T06:45:14.867Z,98980.00
2022-11-16T06:47:49.235Z,98977.44
2022-11-16T06:50:19.744Z,98979.19
2022-11-16T06:52:49.094Z,98981.75
2022-11-16T06:55:18.167Z,98980.88
2022-11-16T06:57:46.911Z,98981.75
2022-11-16T07:00:16.040Z,98980.00
2022-11-16T07:02:44.951Z,98978.34
2022-11-16T07:05:17.840Z,98970.72
2022-11-16T07:07:47.317Z,98972.47
2022-11-16T07:10:15.754Z,98975.03
2022-11-16T07:12:44.549Z,98969.06
2022-11-16T07:15:14.647Z,98976.75
2022-11-16T07:17:46.081Z,98965.72
2022-11-16T07:20:14.606Z,98958.00
2022-11-16T07:22:44.071Z,98957.31
2022-11-16T07:25:16.345Z,98949.59
2022-11-16T07:27:44.166Z,98947.94
2022-11-16T07:30:14.518Z,98946.25
2022-11-16T07:35:55.744Z,98932.66
2022-11-16T07:38:27.894Z,98932.69
2022-11-16T07:41:00.467Z,98931.88
2022-11-16T07:43:31.659Z,98927.63
2022-11-16T07:46:45.142Z,98919.16
2022-11-16T07:49:11.099Z,98920.91
2022-11-16T07:51:55.366Z,98916.69
2022-11-16T07:54:48.096Z,98920.06
2022-11-16T07:57:17.225Z,98918.34
2022-11-16T07:59:45.124Z,98918.34
2022-11-16T08:02:13.257Z,98920.91
2022-11-16T08:04:42.751Z,98931.13
2022-11-16T08:07:11.477Z,98936.19
2022-11-16T08:09:48.398Z,98934.44
2022-11-16T08:12:17.033Z,98937.84
2022-11-16T08:14:45.375Z,98943.81
2022-11-16T08:17:14.408Z,98945.50
2022-11-16T08:19:43.306Z,98943.78
2022-11-16T08:22:14.730Z,98950.56
2022-11-16T08:24:43.410Z,98953.16
2022-11-16T08:27:15.360Z,98953.16
2022-11-16T08:29:45.090Z,98959.19
2022-11-16T08:32:14.144Z,98960.84
2022-11-16T08:34:42.016Z,98963.44
2022-11-16T08:37:09.838Z,98960.03
2022-11-16T08:39:44.404Z,98951.47
2022-11-16T08:42:13.988Z,98959.19
2022-11-16T08:44:46.438Z,98955.72
2022-11-16T08:47:16.436Z,98962.53
2022-11-16T08:49:55.891Z,98967.59
2022-11-16T08:52:25.856Z,98971.81
2022-11-16T08:54:55.358Z,98976.91
2022-11-16T08:57:24.741Z,98980.25
2022-11-16T08:59:57.814Z,98999.00
2022-11-16T09:02:26.051Z,99006.63
2022-11-16T09:04:54.771Z,99018.53
2022-11-16T09:07:22.829Z,99027.84
2022-11-16T09:09:50.912Z,99034.63
2022-11-16T09:12:18.782Z,99042.25
2022-11-16T09:14:48.215Z,99055.78
2022-11-16T09:17:21.756Z,99062.59
2022-11-16T09:19:51.014Z,99072.75
2022-11-16T09:22:18.887Z,99072.75
2022-11-16T09:24:47.309Z,99077.81
2022-11-16T09:27:16.462Z,99088.03
2022-11-16T09:29:45.022Z,99090.53
2022-11-16T09:32:14.252Z,99098.25
2022-11-16T09:34:42.148Z,99105.84
2022-11-16T09:37:10.067Z,99119.47
2022-11-16T09:39:38.182Z,99122.78
2022-11-16T09:42:21.054Z,99137.28
2022-11-16T09:44:57.412Z,99139.84
2022-11-16T09:47:36.539Z,99150.00
2022-11-16T09:50:06.980Z,99151.66
2022-11-16T09:52:40.279Z,99162.66
2022-11-16T09:55:23.168Z,99175.53
2022-11-16T09:57:52.186Z,99174.53
2022-11-16T10:00:23.620Z,99186.50
2022-11-16T10:03:02.100Z,99188.16
2022-11-16T10:05:35.419Z,99200.09
2022-11-16T10:08:10.768Z,99200.09
2022-11-16T10:10:40.936Z,99209.41
2022-11-16T10:13:22.300Z,99220.44
2022-11-16T10:16:00.306Z,99223.78
2022-11-16T10:18:43.757Z,99240.84
2022-11-16T10:21:25.287Z,99246.00
2022-11-16T10:24:15.240Z,99254.41
2022-11-16T10:26:51.454Z,99265.50
2022-11-16T10:29:34.785Z,99269.72
2022-11-16T10:32:15.318Z,99263.75
2022-11-16T10:34:52.705Z,99269.78
2022-11-16T10:37:21.497Z,99273.97
2022-11-16T10:39:53.168Z,99286.63
2022-11-16T10:42:28.432Z,99306.25
2022-11-16T10:44:59.650Z,99306.94
2022-11-16T10:47:34.902Z,99330.84
2022-11-16T10:50:19.452Z,99350.38
2022-11-16T10:52:47.358Z,99370.78
2022-11-16T10:55:16.656Z,99373.31
2022-11-16T10:57:59.972Z,99362.25
2022-11-16T11:00:36.098Z,99358.91
2022-11-16T11:03:04.649Z,99352.13
2022-11-16T11:05:36.179Z,99352.97
2022-11-16T11:08:07.440Z,99352.06
2022-11-16T11:10:37.297Z,99352.91
2022-11-16T11:13:08.931Z,99361.50
2022-11-16T11:15:37.546Z,99353.75
2022-11-16T11:18:13.387Z,99358.06
2022-11-16T11:20:45.520Z,99358.91
2022-11-16T11:23:16.844Z,99347.81
2022-11-16T11:25:52.479Z,99347.88
2022-11-16T11:28:24.052Z,99344.41
2022-11-16T11:30:59.604Z,99346.16
2022-11-16T11:33:30.915Z,99339.31
2022-11-16T11:36:05.220Z,99347.03
2022-11-16T11:38:34.398Z,99347.88
2022-11-16T11:41:05.185Z,99350.47
2022-11-16T11:43:35.049Z,99354.63
2022-11-16T11:46:13.248Z,99356.31
2022-11-16T11:48:48.141Z,99359.75
2022-11-16T11:51:25.181Z,99367.47
2022-11-16T11:53:57.423Z,99369.97
2022-11-16T11:56:25.930Z,99369.97
2022-11-16T11:58:55.034Z,99376.72
2022-11-16T12:01:50.793Z,99398.88
2022-11-16T12:05:03.739Z,99418.41
2022-11-16T12:10:53.001Z,99466.00
2022-11-16T12:13:44.349Z,99483.84
2022-11-16T12:16:19.834Z,99488.09
2022-11-16T12:19:14.602Z,99508.56
2022-11-16T12:21:53.107Z,99499.16
2022-11-16T12:24:37.278Z,99507.66
2022-11-16T12:27:20.500Z,99506.00
2022-11-16T12:30:02.129Z,99501.75
2022-11-16T12:32:44.931Z,99494.09
2022-11-16T12:35:22.843Z,99490.69
2022-11-16T12:38:01.541Z,99490.69
2022-11-16T12:40:50.309Z,99498.28
2022-11-16T12:43:22.435Z,99503.34
2022-11-16T12:46:06.860Z,99508.50
2022-11-16T12:49:06.242Z,99508.50
2022-11-16T12:51:48.118Z,99510.16
2022-11-16T12:54:52.461Z,99508.50
2022-11-16T12:57:40.249Z,99511.03
2022-11-16T13:00:11.025Z,99541.75
2022-11-16T13:02:56.212Z,99564.69
2022-11-16T13:05:32.926Z,99591.88
2022-11-16T13:08:11.177Z,99623.31
2022-11-16T13:10:45.528Z,99653.94
2022-11-16T13:13:35.959Z,99686.25
2022-11-16T13:16:07.924Z,99703.38
2022-11-16T13:18:39.656Z,99711.78
2022-11-16T13:21:16.846Z,99739.06
2022-11-16T13:23:50.518Z,99757.81
2022-11-16T13:26:28.864Z,99786.78
2022-11-16T13:29:08.579Z,99793.59
2022-11-16T13:31:43.004Z,99795.25
2022-11-16T13:34:17.779Z,99789.31
2022-11-16T13:36:47.757Z,99799.59
2022-11-16T13:39:22.244Z,99821.69
2022-11-16T13:42:07.069Z,99865.19
2022-11-16T13:44:37.138Z,99892.44
2022-11-16T13:47:07.432Z,99913.72
2022-11-16T13:49:37.912Z,99946.09
2022-11-16T13:52:28.733Z,99957.13
2022-11-16T13:54:59.203Z,99946.13
2022-11-16T13:57:32.680Z,99923.94
2022-11-16T14:00:12.738Z,99909.41
2022-11-16T14:02:41.783Z,99893.28
2022-11-16T14:05:17.682Z,99877.91
2022-11-16T14:07:49.741Z,99862.66
2022-11-16T14:11:02.712Z,99853.25
2022-11-16T14:13:42.241Z,99837.06
2022-11-16T14:16:42.897Z,99808.94
2022-11-16T14:19:44.220Z,99795.31
2022-11-16T14:22:26.608Z,99783.38
2022-11-16T14:24:59.152Z,99768.09
2022-11-16T14:27:34.291Z,99743.34
2022-11-16T14:30:06.756Z,99733.19
2022-11-16T14:32:44.348Z,99717.84
2022-11-16T14:35:28.247Z,99711.03
2022-11-16T14:38:00.307Z,99709.28
2022-11-16T14:40:28.731Z,99718.75
2022-11-16T14:43:20.213Z,99712.75
2022-11-16T14:45:54.517Z,99713.69
2022-11-16T14:48:26.901Z,99696.56
2022-11-16T14:51:05.747Z,99691.47
2022-11-16T14:53:36.193Z,99687.22
2022-11-16T14:56:09.815Z,99690.66
2022-11-16T14:58:38.927Z,99682.91
2022-11-16T15:01:09.224Z,99682.97
2022-11-16T15:03:47.928Z,99682.97
2022-11-16T15:06:17.535Z,99675.28
2022-11-16T15:08:49.327Z,99677.03
2022-11-16T15:11:25.499Z,99671.00
2022-11-16T15:13:54.982Z,99671.00
2022-11-16T15:16:22.858Z,99670.16
2022-11-16T15:19:00.528Z,99662.50
2022-11-16T15:21:29.265Z,99670.22
2022-11-16T15:26:45.426Z,99647.25
2022-11-16T15:29:17.997Z,99642.97
2022-11-16T15:31:46.308Z,99637.03
2022-11-16T15:34:18.356Z,99612.31
2022-11-16T15:36:47.489Z,99608.09
2022-11-16T15:39:19.371Z,99588.56
2022-11-16T15:41:47.940Z,99559.59
2022-11-16T15:44:19.683Z,99548.56
2022-11-16T15:46:51.428Z,99519.59
2022-11-16T15:49:29.142Z,99509.47
2022-11-16T15:51:59.317Z,99494.16
2022-11-16T15:54:29.431Z,99463.50
2022-11-16T15:57:07.002Z,99441.41
2022-11-16T15:59:38.446Z,99406.59
2022-11-16T16:02:06.563Z,99381.16
2022-11-16T16:04:37.018Z,99353.94
2022-11-16T16:07:04.897Z,99317.47
2022-11-16T16:09:35.554Z,99282.59
2022-11-16T16:12:18.469Z,99246.94
2022-11-16T16:14:48.527Z,99216.41
2022-11-16T16:17:24.675Z,99179.94
2022-11-16T16:19:57.878Z,99155.31
2022-11-16T16:22:29.508Z,99127.38
2022-11-16T16:24:57.914Z,99100.25
2022-11-16T16:27:27.849Z,99073.94
2022-11-16T16:29:57.670Z,99055.28
2022-11-16T16:32:28.042Z,99037.44
2022-11-16T16:34:58.909Z,99023.88
2022-11-16T16:37:29.048Z,99021.38
2022-11-16T16:39:56.909Z,99014.59
2022-11-16T16:42:24.848Z,99010.31
2022-11-16T16:44:54.192Z,99006.06
2022-11-16T16:47:24.040Z,98990.88
2022-11-16T16:49:51.996Z,98962.03
2022-11-16T16:52:21.295Z,98924.72
2022-11-16T16:54:49.108Z,98882.31
2022-11-16T16:57:18.826Z,98842.53
2022-11-16T16:59:48.454Z,98811.31
2022-11-16T17:02:17.188Z,98766.38
2022-11-16T17:04:46.868Z,98739.34
2022-11-16T17:07:15.211Z,98716.47
2022-11-16T17:09:44.675Z,98702.97
2022-11-16T17:12:12.471Z,98670.66
2022-11-16T17:14:40.388Z,98653.81
2022-11-16T17:17:08.333Z,98625.88
2022-11-16T17:19:36.558Z,98604.78
2022-11-16T17:22:04.411Z,98581.97
2022-11-16T17:24:32.341Z,98548.06
2022-11-16T17:27:01.495Z,98535.41
2022-11-16T17:29:29.714Z,98523.53
2022-11-16T17:31:57.614Z,98509.13
2022-11-16T17:34:25.473Z,98504.06
2022-11-16T17:36:53.400Z,98504.97
2022-11-16T17:39:22.416Z,98503.31
2022-11-16T17:41:51.016Z,98494.03
2022-11-16T17:44:22.135Z,98488.97
2022-11-16T17:46:50.707Z,98474.56
2022-11-16T17:49:18.694Z,98469.47
2022-11-16T17:51:46.529Z,98460.22
2022-11-16T17:54:14.453Z,98461.88
2022-11-16T17:56:42.372Z,98448.28
2022-11-16T17:59:10.204Z,98445.00
2022-11-16T18:01:39.568Z,98439.91
2022-11-16T18:04:07.570Z,98428.97
2022-11-16T18:06:35.708Z,98417.16
2022-11-16T18:09:03.592Z,98405.22
2022-11-16T18:11:31.506Z,98411.19
2022-11-16T18:14:00.873Z,98410.28
2022-11-16T18:16:31.539Z,98416.25
2022-11-16T18:19:02.119Z,98417.97
2022-11-16T18:21:30.181Z,98430.72
2022-11-16T18:24:00.098Z,98424.69
2022-11-16T18:26:28.136Z,98434.84
2022-11-16T18:28:56.168Z,98443.34
2022-11-16T18:31:25.370Z,98458.63
2022-11-16T18:33:53.802Z,98463.59
2022-11-16T18:36:23.517Z,98463.59
2022-11-16T18:38:51.547Z,98461.78
2022-11-16T18:41:21.459Z,98477.19
2022-11-16T18:43:51.444Z,98463.53
2022-11-16T18:46:19.994Z,98462.69
2022-11-16T18:48:48.246Z,98462.69
2022-11-16T18:51:17.423Z,98471.31
2022-11-16T18:53:47.052Z,98457.66
2022-11-16T18:56:15.420Z,98451.78
2022-11-16T18:58:52.260Z,98447.56
2022-11-16T19:01:22.941Z,98450.13
2022-11-16T19:03:51.818Z,98456.91
2022-11-16T19:06:20.267Z,98472.97
2022-11-16T19:08:56.213Z,98474.56
2022-11-16T19:11:25.330Z,98484.75
2022-11-16T19:13:54.808Z,98487.31
2022-11-16T19:16:23.627Z,98472.91
2022-11-16T19:18:51.873Z,98458.47
2022-11-16T19:21:20.146Z,98460.22
2022-11-16T19:23:51.135Z,98448.38
2022-11-16T19:26:20.720Z,98441.59
2022-11-16T19:28:50.439Z,98438.19
2022-11-16T19:31:20.571Z,98439.06
2022-11-16T19:33:48.649Z,98441.63
2022-11-16T19:36:17.963Z,98436.50
2022-11-16T19:38:47.456Z,98433.19
2022-11-16T19:41:17.909Z,98432.38
2022-11-16T19:43:45.878Z,98432.38
2022-11-16T19:46:16.514Z,98430.63
2022-11-16T19:48:45.792Z,98427.25
2022-11-16T19:51:19.002Z,98426.41
2022-11-16T19:53:47.740Z,98416.16
2022-11-16T19:56:18.467Z,98416.31
2022-11-16T19:58:46.832Z,98422.28
2022-11-16T20:01:17.196Z,98423.94
2022-11-16T20:03:45.740Z,98428.97
2022-11-16T20:06:15.264Z,98429.81
2022-11-16T20:08:45.843Z,98432.28
2022-11-16T20:11:15.330Z,98436.50
2022-11-16T20:13:45.143Z,98443.38
2022-11-16T20:16:14.208Z,98438.25
2022-11-16T20:18:43.434Z,98445.03
2022-11-16T20:21:14.882Z,98439.84
2022-11-16T20:23:44.559Z,98453.50
2022-11-16T20:26:14.380Z,98450.03
2022-11-16T20:28:44.378Z,98445.81
2022-11-16T20:31:14.183Z,98448.38
2022-11-16T20:33:42.720Z,98444.16
2022-11-16T20:36:12.434Z,98439.16
2022-11-16T20:38:41.391Z,98432.38
2022-11-16T20:41:10.867Z,98423.03
2022-11-16T20:43:40.166Z,98420.47
2022-11-16T20:46:10.533Z,98422.28
2022-11-16T20:48:39.332Z,98416.31
2022-11-16T20:51:08.640Z,98405.28
2022-11-16T20:53:37.472Z,98402.88
2022-11-16T20:56:07.683Z,98385.00
2022-11-16T20:58:36.461Z,98386.78
2022-11-16T21:01:06.899Z,98372.41
2022-11-16T21:03:37.028Z,98351.22
2022-11-16T21:06:08.730Z,98337.78
2022-11-16T21:08:38.419Z,98337.91
2022-11-16T21:11:11.723Z,98316.66
2022-11-16T21:13:57.283Z,98315.75
2022-11-16T21:16:25.194Z,98323.44
2022-11-16T21:18:55.361Z,98319.16
2022-11-16T21:21:23.575Z,98312.38
2022-11-16T21:23:53.133Z,98319.22
2022-11-16T21:26:22.722Z,98316.59
2022-11-16T21:28:50.984Z,98318.31
2022-11-16T21:31:20.364Z,98313.28
2022-11-16T21:33:48.800Z,98314.03
2022-11-16T21:36:20.435Z,98313.19
2022-11-16T21:38:48.768Z,98327.66
2022-11-16T21:41:18.570Z,98326.72
2022-11-16T21:43:46.750Z,98337.78
2022-11-16T21:46:16.683Z,98342.84
2022-11-16T21:48:45.271Z,98344.50
2022-11-16T21:51:15.005Z,98343.66
2022-11-16T21:53:44.430Z,98342.75
2022-11-16T21:56:14.619Z,98341.94
2022-11-16T21:58:42.942Z,98346.22
2022-11-16T22:01:11.689Z,98347.88
2022-11-16T22:03:39.837Z,98346.16
2022-11-16T22:06:27.510Z,98347.81
2022-11-16T22:08:56.783Z,98356.34
2022-11-16T22:11:24.675Z,98348.66
2022-11-16T22:13:52.617Z,98364.78
2022-11-16T22:16:23.105Z,98359.66
2022-11-16T22:18:51.809Z,98355.44
2022-11-16T22:21:19.643Z,98341.94
2022-11-16T22:23:47.661Z,98331.00
2022-11-16T22:26:16.908Z,98328.53
2022-11-16T22:28:44.860Z,98314.84
2022-11-16T22:31:14.552Z,98317.50
2022-11-16T22:33:43.129Z,98320.88
2022-11-16T22:36:13.205Z,98323.44
2022-11-16T22:38:41.033Z,98323.44
2022-11-16T22:41:09.007Z,98311.53
2022-11-16T22:43:39.117Z,98315.00
2022-11-16T22:46:07.474Z,98310.78
2022-11-16T22:48:37.072Z,98304.84
2022-11-16T22:51:06.870Z,98297.16
2022-11-16T22:53:35.516Z,98302.28
2022-11-16T22:56:08.275Z,98298.06
2022-11-16T22:58:36.248Z,98297.22
2022-11-16T23:01:07.352Z,98304.00
2022-11-16T23:06:35.509Z,98293.84
2022-11-16T23:09:03.390Z,98293.84
2022-11-16T23:11:48.963Z,98294.66
2022-11-16T23:14:50.188Z,98296.41
2022-11-16T23:17:18.402Z,98299.78
2022-11-16T23:20:03.593Z,98291.34
2022-11-16T23:22:55.710Z,98281.97
2022-11-16T23:25:41.257Z,98288.75
2022-11-16T23:28:14.499Z,98285.38
2022-11-16T23:30:42.616Z,98279.50
2022-11-16T23:33:10.913Z,98276.13
2022-11-16T23:35:38.966Z,98268.59
2022-11-16T23:38:08.840Z,98253.25
2022-11-16T23:40:38.319Z,98248.22
2022-11-16T23:43:24.925Z,98240.63
2022-11-16T23:45:52.900Z,98249.97
2022-11-16T23:48:20.887Z,98237.22
2022-11-16T23:50:49.020Z,98246.56
2022-11-16T23:53:18.231Z,98227.09
2022-11-16T23:55:47.507Z,98215.28
2022-11-16T23:58:16.627Z,98217.03
